Dayton, Washington
Current Conditions -  °F | °C
As of 11:41 AM on Saturday 25 Oct 2014 (Local Time) from KALW Reporting Station
Haze Haze  
Wind Chill: 50°   Ceiling: 200
Heat Index: 50°   Visibility: 1mi
Dew Point: 49°   Wind: 6mph
Humidity: 96%   Direction: 250°WSW
Pressure: 29.6"   Gusts: NA
Location:  46.32°N, 117.97°W
Report Text: KALW 251841Z 25005KT 1SM R20/P6000FT BR OVC002 10/09 A2960 RMK AO2 T01000094
Loading
Personal Weather Stations






























Interactive Weather Map
Tropical Storm Tracking
New forecast layout! Learn more

10-Day Weather Forecast

Advertisements
Track Severe Weather on mobile